Hlavní strana
METAR-TAF:

METAR-TAF

Letiště :

Machačkala, Rusko

zeměpisná šířka: 42-49-01N, zeměpisná délka: 047-39-08E, výška: 4 m

Aktuální stav počasí

Zpráva byla vytvořena před 19 minutami, v 00:30 UTC
Jihozápadní vítr 6 kt, proměnlivý mezi jižním a západním
Teplota 5°C
Vlhkost vzduchu 87%
Tlak 1022 hPa
Viditelnost 10 km a více

METAR: URML 220030Z 22003MPS 190V270 9999 NSC 05/03 Q1022 R32/01//70 NOSIG RMK QFE766/1021

Čas: 03:49 (00:49 UTC)

Předpověď počasí

Zpráva byla vytvořena před 1 hodinou a 49 minutami, v 23:00 UTC
Předpověď platná od 22 v 00 UTC do 22 v 09 UTC
Jihojihozápadní vítr 6 kt s nárazy do 19 kt
Viditelnost: 6000 m
Dočasný
od 22 v 00 UTC do 22 v 04 UTC
vítr z různých směrů 2 kt s nárazy do 16 kt

TAF: URML 212300Z 2200/2209 21003G10MPS 6000 NSC TEMPO 2200/2204 VRB01G08MPS

Stav a předpovědi počasí z více než 4 000 letišť (zprávy METAR a TAF).

Červené a žluté tečky na mapě představují dostupné meteorologické stanice.

Když kurzor umístíte na tečku, zobrazí se název stanice.

Pak kliknutím zobrazíte stav a předpověď počasí.

Chcete-li změnit mapu, kliknutím na zelené tlačítko se znaménkem +mapu přiblížíte, kliknutím na zelené tlačítko se znaménkem – mapu oddálíte a kliknutím na zelené šipky přejdete na sousední mapy.


METAR-TAF: